createdAt,value
2019-03-06T00:00:55.849Z,36.25
2019-03-06T00:03:22.709Z,33.38
2019-03-06T00:05:49.185Z,39.85
2019-03-06T00:08:15.630Z,39.45
2019-03-06T00:10:42.236Z,37.45
2019-03-06T00:13:08.658Z,37.23
2019-03-06T00:15:35.402Z,42.48
2019-03-06T00:18:02.550Z,57.83
2019-03-06T00:20:28.992Z,51.15
2019-03-06T00:22:55.529Z,50.50
2019-03-06T00:25:22.094Z,65.35
2019-03-06T00:27:48.515Z,58.45
2019-03-06T00:30:19.187Z,54.42
2019-03-06T00:32:45.872Z,50.78
2019-03-06T00:35:24.245Z,49.08
2019-03-06T00:37:50.695Z,42.45
2019-03-06T00:40:36.583Z,42.83
2019-03-06T00:43:03.271Z,38.20
2019-03-06T00:45:29.781Z,39.20
2019-03-06T00:47:56.240Z,43.23
2019-03-06T00:50:22.674Z,40.75
2019-03-06T00:52:49.139Z,40.17
2019-03-06T00:55:15.895Z,49.05
2019-03-06T00:57:42.459Z,48.40
2019-03-06T01:00:19.397Z,46.35
2019-03-06T01:02:46.047Z,52.70
2019-03-06T01:05:12.674Z,48.83
2019-03-06T01:07:39.520Z,46.88
2019-03-06T01:10:08.988Z,45.12
2019-03-06T01:12:35.525Z,46.35
2019-03-06T01:15:04.112Z,51.50
2019-03-06T01:17:30.663Z,46.85
2019-03-06T01:19:57.109Z,46.18
2019-03-06T01:22:23.544Z,45.58
2019-03-06T01:24:50.098Z,45.70
2019-03-06T01:27:16.562Z,50.05
2019-03-06T01:29:42.993Z,55.50
2019-03-06T01:32:09.412Z,46.45
2019-03-06T01:34:40.792Z,37.42
2019-03-06T01:37:12.123Z,36.03
2019-03-06T01:39:40.451Z,41.20
2019-03-06T01:42:11.715Z,33.05
2019-03-06T01:44:40.063Z,39.27
2019-03-06T01:47:06.642Z,33.45
2019-03-06T01:49:33.112Z,27.65
2019-03-06T01:51:59.566Z,37.73
2019-03-06T01:54:26.014Z,42.73
2019-03-06T01:56:52.463Z,37.30
2019-03-06T01:59:18.914Z,30.80
2019-03-06T02:01:45.676Z,39.75
2019-03-06T02:04:12.131Z,35.85
2019-03-06T02:06:38.899Z,29.82
2019-03-06T02:09:07.941Z,32.85
2019-03-06T02:11:34.878Z,24.77
2019-03-06T02:14:01.322Z,18.48
2019-03-06T02:16:28.071Z,22.25
2019-03-06T02:18:54.547Z,21.20
2019-03-06T02:21:21.001Z,29.70
2019-03-06T02:23:47.407Z,27.55
2019-03-06T02:26:13.855Z,36.30
2019-03-06T02:28:40.399Z,32.30
2019-03-06T02:31:07.013Z,40.73
2019-03-06T02:33:33.489Z,37.58
2019-03-06T02:36:00.035Z,36.38
2019-03-06T02:38:26.498Z,35.68
2019-03-06T02:40:53.048Z,33.63
2019-03-06T02:43:19.621Z,29.25
2019-03-06T02:45:46.155Z,31.65
2019-03-06T02:48:12.586Z,32.10
2019-03-06T02:50:39.067Z,30.05
2019-03-06T02:53:05.622Z,30.27
2019-03-06T02:55:32.024Z,32.28
2019-03-06T02:58:15.719Z,28.92
2019-03-06T03:00:46.750Z,32.05
2019-03-06T03:03:17.959Z,32.40
2019-03-06T03:05:46.314Z,33.63
2019-03-06T03:08:12.752Z,32.20
2019-03-06T03:10:39.211Z,30.62
2019-03-06T03:13:05.633Z,36.40
2019-03-06T03:15:32.160Z,34.18
2019-03-06T03:17:58.703Z,29.77
2019-03-06T03:20:25.141Z,28.45
2019-03-06T03:22:51.730Z,31.02
2019-03-06T03:25:18.253Z,33.80
2019-03-06T03:27:44.837Z,37.93
2019-03-06T03:30:13.790Z,39.38
2019-03-06T03:32:40.245Z,42.10
2019-03-06T03:35:08.082Z,46.63
2019-03-06T03:37:34.521Z,43.33
2019-03-06T03:40:00.985Z,44.33
2019-03-06T03:42:27.953Z,43.87
2019-03-06T03:44:54.424Z,44.90
2019-03-06T03:47:20.877Z,43.52
2019-03-06T03:49:47.321Z,50.23
2019-03-06T03:52:13.748Z,46.55
2019-03-06T03:54:40.219Z,46.35
2019-03-06T03:57:06.657Z,40.70
2019-03-06T03:59:33.090Z,39.25
2019-03-06T04:01:59.530Z,39.27
2019-03-06T04:04:26.048Z,35.60
2019-03-06T04:06:52.462Z,37.60
2019-03-06T04:09:18.895Z,33.10
2019-03-06T04:11:45.323Z,31.62
2019-03-06T04:14:12.147Z,37.10
2019-03-06T04:16:38.590Z,34.13
2019-03-06T04:19:05.021Z,35.98
2019-03-06T04:21:31.567Z,37.80
2019-03-06T04:23:58.013Z,34.33
2019-03-06T04:26:24.473Z,33.88
2019-03-06T04:28:50.914Z,34.80
2019-03-06T04:31:17.365Z,32.15
2019-03-06T04:33:43.787Z,32.25
2019-03-06T04:36:10.239Z,36.00
2019-03-06T04:38:36.685Z,38.28
2019-03-06T04:41:03.175Z,59.93
2019-03-06T04:43:29.650Z,58.35
2019-03-06T04:45:56.213Z,40.78
2019-03-06T04:48:22.628Z,38.88
2019-03-06T04:50:49.078Z,38.63
2019-03-06T04:53:15.502Z,36.53
2019-03-06T04:55:41.940Z,38.48
2019-03-06T04:58:08.415Z,37.10
2019-03-06T05:00:35.185Z,40.70
2019-03-06T05:03:01.622Z,34.38
2019-03-06T05:05:28.062Z,36.50
2019-03-06T05:07:54.526Z,37.53
2019-03-06T05:10:20.959Z,42.85
2019-03-06T05:12:47.407Z,37.53
2019-03-06T05:15:15.378Z,44.20
2019-03-06T05:17:43.715Z,37.90
2019-03-06T05:20:10.145Z,39.48
2019-03-06T05:22:36.610Z,44.50
2019-03-06T05:25:04.632Z,36.83
2019-03-06T05:27:31.069Z,40.58
2019-03-06T05:29:58.943Z,35.65
2019-03-06T05:32:27.480Z,39.75
2019-03-06T05:34:55.528Z,40.25
2019-03-06T05:37:51.869Z,35.40
2019-03-06T05:40:18.507Z,39.40
2019-03-06T05:42:45.062Z,39.95
2019-03-06T05:45:11.824Z,38.42
2019-03-06T05:47:38.277Z,39.67
2019-03-06T05:50:06.931Z,36.55
2019-03-06T05:52:33.382Z,37.70
2019-03-06T05:54:59.796Z,38.15
2019-03-06T05:57:26.251Z,41.75
2019-03-06T05:59:52.694Z,39.33
2019-03-06T06:02:19.204Z,40.98
2019-03-06T06:04:45.669Z,38.58
2019-03-06T06:07:12.129Z,48.25
2019-03-06T06:09:38.551Z,47.20
2019-03-06T06:12:04.997Z,36.58
2019-03-06T06:14:31.433Z,36.45
2019-03-06T06:16:57.901Z,44.27
2019-03-06T06:19:24.341Z,43.85
2019-03-06T06:22:07.932Z,39.05
2019-03-06T06:24:34.440Z,42.13
2019-03-06T06:27:00.915Z,42.27
2019-03-06T06:29:27.358Z,40.28
2019-03-06T06:31:53.780Z,49.00
2019-03-06T06:34:20.262Z,43.83
2019-03-06T06:36:46.792Z,59.03
2019-03-06T06:39:13.236Z,53.00
2019-03-06T06:41:39.776Z,50.12
2019-03-06T06:44:06.273Z,59.13
2019-03-06T06:46:32.739Z,59.88
2019-03-06T06:48:59.199Z,49.93
2019-03-06T06:51:38.700Z,44.58
2019-03-06T06:54:12.167Z,48.52
2019-03-06T06:56:45.301Z,52.48
2019-03-06T06:59:27.543Z,60.57
2019-03-06T07:02:11.910Z,53.35
2019-03-06T07:05:04.290Z,53.45
2019-03-06T07:07:32.618Z,58.92
2019-03-06T07:10:17.888Z,54.95
2019-03-06T07:12:58.478Z,55.58
2019-03-06T07:15:44.635Z,45.98
2019-03-06T07:18:21.641Z,47.05
2019-03-06T07:21:05.214Z,44.63
2019-03-06T07:23:49.897Z,47.78
2019-03-06T07:26:34.982Z,50.20
2019-03-06T07:29:03.422Z,52.45
2019-03-06T07:31:31.875Z,48.33
2019-03-06T07:34:12.216Z,54.03
2019-03-06T07:36:43.552Z,62.70
2019-03-06T07:39:15.451Z,56.35
2019-03-06T07:41:44.128Z,55.15
2019-03-06T07:44:12.496Z,57.30
2019-03-06T07:46:59.200Z,59.83
2019-03-06T07:49:27.554Z,54.53
2019-03-06T07:52:05.128Z,48.78
2019-03-06T07:54:39.282Z,51.95
2019-03-06T07:59:34.042Z,53.30
2019-03-06T08:02:20.839Z,51.60
2019-03-06T08:04:53.238Z,51.42
2019-03-06T08:07:19.816Z,50.73
2019-03-06T08:09:46.757Z,47.93
2019-03-06T08:12:24.422Z,45.28
2019-03-06T08:14:55.392Z,44.33
2019-03-06T08:17:30.851Z,43.52
2019-03-06T08:20:14.461Z,36.88
2019-03-06T08:22:51.892Z,37.50
2019-03-06T08:25:32.431Z,38.10
2019-03-06T08:27:59.064Z,36.42
2019-03-06T08:30:27.414Z,38.48
2019-03-06T08:32:53.851Z,36.45
2019-03-06T08:35:20.290Z,37.05
2019-03-06T08:37:46.769Z,37.33
2019-03-06T08:40:13.409Z,40.92
2019-03-06T08:42:39.966Z,36.03
2019-03-06T08:45:13.484Z,35.13
2019-03-06T08:47:43.137Z,39.30
2019-03-06T08:50:11.682Z,29.87
2019-03-06T08:52:40.015Z,33.15
2019-03-06T08:55:15.906Z,32.45
2019-03-06T08:57:47.049Z,32.53
2019-03-06T09:00:33.623Z,32.23
2019-03-06T09:03:03.956Z,31.55
2019-03-06T09:05:44.842Z,31.50
2019-03-06T09:08:31.772Z,30.12
2019-03-06T09:11:18.366Z,32.20
2019-03-06T09:13:46.799Z,31.55
2019-03-06T09:16:24.179Z,31.87
2019-03-06T09:18:55.629Z,33.05
2019-03-06T09:21:23.969Z,32.98
2019-03-06T09:24:04.490Z,35.15
2019-03-06T09:26:35.778Z,31.97
2019-03-06T09:29:16.374Z,26.35
2019-03-06T09:31:53.493Z,26.02
2019-03-06T09:37:05.058Z,30.65
2019-03-06T09:39:34.530Z,31.70
2019-03-06T09:42:09.066Z,26.25
2019-03-06T09:44:37.416Z,24.70
2019-03-06T09:47:08.773Z,26.95
2019-03-06T09:49:49.150Z,26.60
2019-03-06T09:52:34.155Z,31.02
2019-03-06T09:55:02.606Z,23.57
2019-03-06T09:57:33.663Z,25.72
2019-03-06T10:00:14.101Z,25.72
2019-03-06T10:02:48.590Z,24.82
2019-03-06T10:05:19.988Z,27.65
2019-03-06T10:07:48.540Z,24.45
2019-03-06T10:10:26.285Z,23.47
2019-03-06T10:13:06.826Z,22.65
2019-03-06T10:15:44.179Z,25.60
2019-03-06T10:18:15.720Z,25.90
2019-03-06T10:20:42.174Z,29.57
2019-03-06T10:23:08.609Z,28.60
2019-03-06T10:25:35.173Z,27.95
2019-03-06T10:28:06.367Z,25.97
2019-03-06T10:30:30.079Z,24.00
2019-03-06T10:32:56.511Z,21.65
2019-03-06T10:35:22.975Z,23.75
2019-03-06T10:37:49.746Z,25.57
2019-03-06T10:40:17.417Z,22.20
2019-03-06T10:42:44.195Z,20.45
2019-03-06T10:45:12.746Z,24.90
2019-03-06T10:47:39.519Z,21.68
2019-03-06T10:50:10.878Z,23.18
2019-03-06T10:52:37.445Z,19.17
2019-03-06T10:55:10.335Z,23.75
2019-03-06T10:57:36.875Z,19.40
2019-03-06T11:00:09.941Z,21.52
2019-03-06T11:02:36.598Z,22.70
2019-03-06T11:05:08.458Z,21.02
2019-03-06T11:07:35.122Z,19.90
2019-03-06T11:10:02.265Z,22.85
2019-03-06T11:12:28.832Z,21.97
2019-03-06T11:14:55.496Z,21.37
2019-03-06T11:17:22.164Z,19.67
2019-03-06T11:19:49.209Z,23.18
2019-03-06T11:22:15.959Z,22.32
2019-03-06T11:24:42.685Z,22.25
2019-03-06T11:27:09.355Z,22.58
2019-03-06T11:29:36.006Z,21.75
2019-03-06T11:32:03.685Z,19.82
2019-03-06T11:34:30.329Z,20.55
2019-03-06T11:36:56.994Z,21.45
2019-03-06T11:39:23.847Z,25.88
2019-03-06T11:41:50.317Z,16.97
2019-03-06T11:44:16.815Z,19.62
2019-03-06T11:46:43.437Z,20.37
2019-03-06T11:49:10.351Z,18.65
2019-03-06T11:51:36.885Z,19.23
2019-03-06T11:54:04.634Z,18.07
2019-03-06T11:56:31.674Z,17.62
2019-03-06T11:58:58.311Z,17.57
2019-03-06T12:01:26.168Z,17.70
2019-03-06T12:03:53.420Z,18.80
2019-03-06T12:06:20.193Z,15.72
2019-03-06T12:08:46.732Z,16.62
2019-03-06T12:11:13.390Z,17.70
2019-03-06T12:13:40.037Z,17.40
2019-03-06T12:16:07.153Z,19.80
2019-03-06T12:18:34.210Z,12.93
2019-03-06T12:21:00.879Z,20.05
2019-03-06T12:23:27.418Z,17.17
2019-03-06T12:25:53.994Z,19.25
2019-03-06T12:28:20.530Z,16.97
2019-03-06T12:30:47.198Z,17.98
2019-03-06T12:33:19.418Z,19.23
2019-03-06T12:35:46.262Z,15.63
2019-03-06T12:38:12.693Z,22.07
2019-03-06T12:40:39.235Z,18.12
2019-03-06T12:43:05.693Z,17.30
2019-03-06T12:45:32.520Z,19.07
2019-03-06T12:48:08.949Z,17.55
2019-03-06T12:50:39.562Z,17.87
2019-03-06T12:53:06.222Z,20.17
2019-03-06T12:55:32.759Z,16.45
2019-03-06T12:57:59.779Z,17.60
2019-03-06T13:00:27.573Z,15.80
2019-03-06T13:02:54.609Z,16.90
2019-03-06T13:05:22.429Z,17.17
2019-03-06T13:07:48.980Z,16.93
2019-03-06T13:10:16.904Z,15.48
2019-03-06T13:12:44.480Z,16.42
2019-03-06T13:15:25.629Z,15.03
2019-03-06T13:17:53.081Z,16.60
2019-03-06T13:20:20.081Z,21.68
2019-03-06T13:22:47.152Z,16.62
2019-03-06T13:25:17.416Z,16.55
2019-03-06T13:27:48.076Z,16.20
2019-03-06T13:30:15.858Z,17.32
2019-03-06T13:32:44.531Z,13.28
2019-03-06T13:35:11.188Z,14.78
2019-03-06T13:37:37.748Z,14.35
2019-03-06T13:40:05.473Z,17.40
2019-03-06T13:42:32.039Z,14.75
2019-03-06T13:44:58.503Z,13.95
2019-03-06T13:47:25.156Z,14.78
2019-03-06T13:49:51.992Z,11.83
2019-03-06T13:54:44.185Z,13.40
2019-03-06T13:57:11.335Z,16.85
2019-03-06T13:59:37.981Z,16.77
2019-03-06T14:02:04.443Z,13.88
2019-03-06T14:04:31.057Z,17.35
2019-03-06T14:06:57.750Z,13.18
2019-03-06T14:09:25.599Z,14.30
2019-03-06T14:11:52.046Z,12.37
2019-03-06T14:14:18.491Z,13.43
2019-03-06T14:16:44.983Z,13.75
2019-03-06T14:19:11.526Z,9.03
2019-03-06T14:21:38.192Z,13.00
2019-03-06T14:24:05.155Z,13.83
2019-03-06T14:26:31.833Z,14.40
2019-03-06T14:28:58.392Z,13.22
2019-03-06T14:31:24.969Z,9.43
2019-03-06T14:33:51.589Z,9.05
2019-03-06T14:36:18.056Z,10.70
2019-03-06T14:38:44.516Z,10.00
2019-03-06T14:41:11.078Z,8.55
2019-03-06T14:43:37.742Z,11.57
2019-03-06T14:46:04.760Z,10.03
2019-03-06T14:48:31.400Z,9.65
2019-03-06T14:50:58.122Z,7.50
2019-03-06T14:53:24.764Z,10.10
2019-03-06T14:55:51.344Z,13.93
2019-03-06T14:58:17.853Z,10.82
2019-03-06T15:00:44.438Z,9.48
2019-03-06T15:03:11.443Z,7.92
2019-03-06T15:05:46.631Z,7.40
2019-03-06T15:08:06.533Z,11.40
2019-03-06T15:10:33.228Z,10.48
2019-03-06T15:13:00.974Z,7.78
2019-03-06T15:15:27.554Z,11.33
2019-03-06T15:17:54.075Z,10.45
2019-03-06T15:20:25.699Z,9.03
2019-03-06T15:22:53.366Z,9.40
2019-03-06T15:25:21.598Z,11.38
2019-03-06T15:27:48.159Z,10.90
2019-03-06T15:30:17.152Z,12.05
2019-03-06T15:32:43.915Z,12.50
2019-03-06T15:35:11.335Z,12.18
2019-03-06T15:37:38.306Z,10.85
2019-03-06T15:40:24.415Z,9.48
2019-03-06T15:42:51.960Z,16.12
2019-03-06T15:45:21.618Z,15.90
2019-03-06T15:47:49.043Z,14.98
2019-03-06T15:50:16.851Z,8.70
2019-03-06T15:52:43.581Z,13.43
2019-03-06T15:55:12.160Z,30.25
2019-03-06T15:57:39.246Z,20.05
2019-03-06T16:00:34.663Z,13.62
2019-03-06T16:03:14.081Z,13.08
2019-03-06T16:05:52.439Z,97.22
2019-03-06T16:08:20.822Z,13.43
2019-03-06T16:10:47.371Z,15.68
2019-03-06T16:13:13.854Z,11.30
2019-03-06T16:15:50.709Z,11.70
2019-03-06T16:18:33.380Z,14.30
2019-03-06T16:21:12.741Z,11.85
2019-03-06T16:23:51.770Z,12.05
2019-03-06T16:26:29.718Z,12.80
2019-03-06T16:29:08.500Z,11.38
2019-03-06T16:31:47.348Z,12.65
2019-03-06T16:34:26.088Z,14.98
2019-03-06T16:36:54.562Z,11.68
2019-03-06T16:39:31.925Z,11.45
2019-03-06T16:42:08.694Z,16.42
2019-03-06T16:44:40.279Z,21.70
2019-03-06T16:47:07.183Z,14.35
2019-03-06T16:49:33.812Z,13.78
2019-03-06T16:52:00.282Z,10.38
2019-03-06T16:54:26.834Z,10.68
2019-03-06T16:56:53.430Z,10.48
2019-03-06T16:59:20.083Z,11.28
2019-03-06T17:01:46.673Z,16.17
2019-03-06T17:04:13.223Z,21.17
2019-03-06T17:06:39.828Z,16.75
2019-03-06T17:09:06.909Z,19.77
2019-03-06T17:11:35.488Z,19.90
2019-03-06T17:14:02.173Z,22.80
2019-03-06T17:16:29.278Z,18.85
2019-03-06T17:18:55.709Z,21.80
2019-03-06T17:21:22.253Z,20.20
2019-03-06T17:23:48.852Z,17.57
2019-03-06T17:26:28.681Z,35.92
2019-03-06T17:29:03.033Z,25.80
2019-03-06T17:31:41.235Z,13.80
2019-03-06T17:34:18.231Z,20.77
2019-03-06T17:36:54.893Z,20.17
2019-03-06T17:39:23.538Z,21.62
2019-03-06T17:41:49.983Z,15.72
2019-03-06T17:44:16.566Z,21.15
2019-03-06T17:46:43.146Z,19.15
2019-03-06T17:49:09.896Z,13.03
2019-03-06T17:51:36.473Z,18.48
2019-03-06T17:54:03.132Z,13.05
2019-03-06T17:56:29.793Z,17.02
2019-03-06T17:58:56.275Z,15.00
2019-03-06T18:01:22.869Z,17.15
2019-03-06T18:03:51.675Z,14.65
2019-03-06T18:06:18.427Z,16.37
2019-03-06T18:08:45.010Z,14.00
2019-03-06T18:11:11.666Z,17.85
2019-03-06T18:13:38.105Z,19.60
2019-03-06T18:16:04.754Z,19.98
2019-03-06T18:18:31.208Z,27.00
2019-03-06T18:20:57.845Z,21.52
2019-03-06T18:23:24.387Z,19.82
2019-03-06T18:25:50.950Z,30.57
2019-03-06T18:28:17.510Z,39.18
2019-03-06T18:30:44.084Z,21.52
2019-03-06T18:33:10.512Z,16.85
2019-03-06T18:35:36.973Z,12.78
2019-03-06T18:38:12.022Z,11.48
2019-03-06T18:40:42.349Z,13.80
2019-03-06T18:43:08.850Z,11.38
2019-03-06T18:45:35.447Z,18.55
2019-03-06T18:48:02.020Z,12.47
2019-03-06T18:50:28.608Z,17.27
2019-03-06T18:52:55.289Z,67.62
2019-03-06T18:55:21.910Z,36.77
2019-03-06T18:57:48.928Z,12.85
2019-03-06T19:00:25.686Z,166.15
2019-03-06T19:02:52.217Z,15.80
2019-03-06T19:05:19.387Z,19.25
2019-03-06T19:07:46.744Z,17.32
2019-03-06T19:10:20.859Z,15.50
2019-03-06T19:15:22.706Z,15.23
2019-03-06T19:17:49.358Z,17.92
2019-03-06T19:20:18.738Z,21.02
2019-03-06T19:22:46.011Z,16.67
2019-03-06T19:25:13.464Z,14.13
2019-03-06T19:27:40.031Z,12.15
2019-03-06T19:30:19.329Z,13.15
2019-03-06T19:32:46.081Z,14.83
2019-03-06T19:35:13.724Z,21.55
2019-03-06T19:37:40.295Z,17.75
2019-03-06T19:40:08.739Z,16.67
2019-03-06T19:42:35.218Z,16.23
2019-03-06T19:45:04.803Z,14.25
2019-03-06T19:47:31.330Z,13.50
2019-03-06T19:49:57.808Z,15.00
2019-03-06T19:52:24.365Z,16.73
2019-03-06T19:54:50.839Z,25.43
2019-03-06T19:57:17.423Z,20.23
2019-03-06T19:59:45.012Z,17.73
2019-03-06T20:02:12.037Z,85.17
2019-03-06T20:04:38.539Z,29.87
2019-03-06T20:07:05.193Z,18.95
2019-03-06T20:09:31.741Z,41.25
2019-03-06T20:11:58.292Z,17.95
2019-03-06T20:14:24.997Z,15.95
2019-03-06T20:16:51.472Z,21.42
2019-03-06T20:19:17.953Z,20.85
2019-03-06T20:21:44.829Z,20.48
2019-03-06T20:24:11.253Z,20.10
2019-03-06T20:26:38.035Z,17.50
2019-03-06T20:29:04.898Z,17.23
2019-03-06T20:31:31.604Z,20.27
2019-03-06T20:33:58.398Z,18.15
2019-03-06T20:36:24.989Z,18.40
2019-03-06T20:38:51.473Z,19.70
2019-03-06T20:41:18.134Z,32.70
2019-03-06T20:43:44.688Z,17.92
2019-03-06T20:46:11.152Z,21.62
2019-03-06T20:48:37.629Z,16.75
2019-03-06T20:51:04.099Z,16.65
2019-03-06T20:53:30.538Z,16.23
2019-03-06T20:55:56.979Z,16.52
2019-03-06T20:58:23.467Z,19.50
2019-03-06T21:00:50.019Z,17.15
2019-03-06T21:03:16.532Z,17.32
2019-03-06T21:05:43.128Z,12.60
2019-03-06T21:08:09.982Z,19.82
2019-03-06T21:10:36.543Z,18.05
2019-03-06T21:13:03.214Z,15.23
2019-03-06T21:15:29.779Z,16.40
2019-03-06T21:17:56.240Z,15.65
2019-03-06T21:20:23.421Z,15.10
2019-03-06T21:22:49.960Z,16.62
2019-03-06T21:25:18.316Z,19.20
2019-03-06T21:27:45.989Z,16.17
2019-03-06T21:30:15.916Z,14.68
2019-03-06T21:32:42.389Z,15.13
2019-03-06T21:35:09.017Z,14.25
2019-03-06T21:37:35.448Z,15.28
2019-03-06T21:40:02.237Z,18.05
2019-03-06T21:42:28.867Z,17.73
2019-03-06T21:44:55.336Z,19.23
2019-03-06T21:47:22.109Z,22.05
2019-03-06T21:49:48.676Z,21.05
2019-03-06T21:52:15.147Z,19.80
2019-03-06T21:54:41.588Z,13.60
2019-03-06T21:57:08.050Z,13.53
2019-03-06T21:59:34.498Z,14.68
2019-03-06T22:02:00.932Z,14.43
2019-03-06T22:04:27.433Z,14.63
2019-03-06T22:06:54.455Z,14.70
2019-03-06T22:09:20.929Z,13.30
2019-03-06T22:11:47.467Z,13.13
2019-03-06T22:14:13.896Z,14.75
2019-03-06T22:16:40.354Z,12.45
2019-03-06T22:19:06.827Z,11.43
2019-03-06T22:21:33.270Z,11.40
2019-03-06T22:23:59.730Z,13.45
2019-03-06T22:26:26.366Z,9.00
2019-03-06T22:28:52.851Z,9.75
2019-03-06T22:31:19.401Z,11.55
2019-03-06T22:33:45.863Z,14.00
2019-03-06T22:36:12.296Z,13.50
2019-03-06T22:38:38.855Z,11.50
2019-03-06T22:41:05.305Z,14.90
2019-03-06T22:43:31.775Z,9.65
2019-03-06T22:45:58.426Z,14.23
2019-03-06T22:48:24.883Z,10.88
2019-03-06T22:50:51.351Z,10.50
2019-03-06T22:53:17.783Z,9.60
2019-03-06T22:55:44.266Z,8.65
2019-03-06T22:58:10.689Z,12.33
2019-03-06T23:00:51.277Z,10.55
2019-03-06T23:03:20.411Z,9.55
2019-03-06T23:05:46.973Z,10.10
2019-03-06T23:08:13.532Z,10.93
2019-03-06T23:10:40.152Z,11.50
2019-03-06T23:13:06.695Z,11.65
2019-03-06T23:15:33.133Z,9.95
2019-03-06T23:17:59.686Z,10.08
2019-03-06T23:20:26.236Z,10.90
2019-03-06T23:22:52.684Z,12.05
2019-03-06T23:25:19.107Z,10.00
2019-03-06T23:27:45.773Z,10.18
2019-03-06T23:30:13.615Z,9.55
2019-03-06T23:32:40.155Z,10.88
2019-03-06T23:35:06.988Z,12.40
2019-03-06T23:37:33.550Z,12.90
2019-03-06T23:39:59.966Z,12.80
2019-03-06T23:42:26.421Z,11.35
2019-03-06T23:44:52.879Z,11.90
2019-03-06T23:47:19.344Z,8.48
2019-03-06T23:49:45.770Z,10.43
2019-03-06T23:52:14.345Z,7.42
2019-03-06T23:54:40.878Z,9.43
2019-03-06T23:57:07.316Z,12.15
2019-03-06T23:59:33.795Z,10.75
